首页
METAR-TAF:

METAR-TAF

机场 :

東京國際機場

东京国际机场, 日本

纬度: 35-33N, 经度: 139-47E, 海拔: 5米

当前天气观测

该预报发布于33分钟前的09:30 UTC
风速3节,风向
温度 16°C
湿度 68%
气压 1015 hPa
能见度10公里或以上
少量云层高于3000英尺
散云层高于4000英尺

METAR: RJTT 150930Z 10003KT 9999 FEW030 SCT040 16/10 Q1015 BECMG 04005KT RMK 1CU030 3SC040 A2999

时间: 19:03 (10:03 UTC)

预报

该预报发布于4小时和58分钟前的05:05 UTC
预报有效从15日的 06点(UTC)到 16日的 12点(UTC)
风速4节,风向
能见度10公里或以上
少量云层高于3000英尺
成为
从 15日的 07点(UTC)到 15日的 09点(UTC)
风速6节,风向
成为
从 16日的 00点(UTC)到 16日的 03点(UTC)
风速5节,风向东转东南
成为
从 16日的 09点(UTC)到 16日的 12点(UTC)
风速8节,风向北转东北

TAF: RJTT 150505Z 1506/1612 08004KT 9999 FEW030 BECMG 1507/1509 35006KT BECMG 1600/1603 12005KT BECMG 1609/1612 02008KT

超过4000个机场的气象观测和天气预报(METAR&TAF报告)。

可查询的气象台以黄色和红色小点在地图上表示。

将鼠标移到小点上方,可查看气象台名称。

然后点击查看天气观测和预报。

如需切换地图:点击带黑十字的绿色按钮放大地图;点击带横线的绿色按钮缩小地图;或者点击绿色箭头查看邻近地区的地图。


METAR-TAF: